Time;durP1;ratioP1;P1;durP2;ratioP2;P2;SDS_P1;SDS_P2;PMS_P1;PMS_P2;Temp;Humidity;BMP_temperature;BMP_pressure;BME280_temperature;BME280_humidity;BME280_pressure;Samples;Min_cycle;Max_cycle;Signal;HPM_P1;HPM_P2
2023/03/23 03:13:15;;;;;;;0.50;0.50;;;18.30;59.70;;;18.16;43.62;94395.53;5211248;23;20232;-25
2023/03/23 03:16:14;;;;;;;0.50;0.50;;;18.30;59.60;;;18.16;43.65;94395.53;4853206;29;20193;-25
2023/03/23 04:02:56;;;;;;;0.50;0.50;;;18.00;59.80;;;17.87;43.83;94382.47;4917647;23;20406;-29
2023/03/23 04:06:18;;;;;;;0.40;0.40;;;18.00;60.00;;;17.89;43.95;94389.16;4891974;29;20207;-30
2023/03/23 04:09:48;;;;;;;0.50;0.50;;;18.00;60.10;;;17.89;44.32;94383.84;4874317;29;20271;-30
2023/03/23 04:12:46;;;;;;;0.50;0.50;;;18.00;60.00;;;17.93;43.93;94390.25;4920119;29;20208;-30
2023/03/23 04:15:52;;;;;;;0.50;0.50;;;18.00;60.10;;;17.93;44.37;94392.09;4905812;29;20201;-30
2023/03/23 04:18:55;;;;;;;0.50;0.50;;;18.00;60.10;;;17.96;43.82;94396.16;4907752;29;20231;-30
2023/03/23 04:22:16;;;;;;;0.50;0.50;;;18.00;60.10;;;17.97;44.34;94392.41;4906366;29;20247;-30
2023/03/23 04:29:37;;;;;;;0.50;0.50;;;18.10;60.10;;;17.92;44.25;94390.50;4882338;29;20356;-29
2023/03/23 04:32:35;;;;;;;0.47;0.47;;;18.10;60.10;;;17.95;43.86;94397.19;4883076;29;20333;-29
2023/03/23 04:35:21;;;;;;;0.50;0.50;;;18.10;60.20;;;17.94;44.24;94393.69;4883589;29;20202;-28
2023/03/23 04:38:20;;;;;;;0.40;0.40;;;18.00;60.10;;;17.97;43.80;94403.03;4898126;29;20750;-29
2023/03/23 04:41:05;;;;;;;0.50;0.50;;;18.10;60.20;;;17.98;44.36;94402.81;4898023;29;20202;-29
2023/03/23 04:44:04;;;;;;;0.50;0.50;;;18.10;60.20;;;17.98;44.06;94396.69;4907808;23;20324;-26
2023/03/23 04:47:01;;;;;;;0.60;0.60;;;18.10;60.20;;;17.98;44.33;94400.16;4901500;29;20197;-26
2023/03/23 04:49:50;;;;;;;0.50;0.50;;;18.10;60.20;;;17.99;44.30;94395.63;4901064;29;20752;-26
2023/03/23 04:57:12;;;;;;;0.50;0.50;;;18.10;60.10;;;17.95;44.36;94405.94;4865604;29;20209;-25
2023/03/23 04:59:56;;;;;;;0.57;0.57;;;18.10;60.10;;;17.96;43.70;94402.25;4881363;29;20542;-25
2023/03/23 05:02:39;;;;;;;0.50;0.50;;;18.10;60.20;;;17.97;43.85;94405.69;4881743;29;20217;-25
2023/03/23 05:05:31;;;;;;;0.50;0.50;;;18.00;60.10;;;17.96;43.95;94404.91;4866770;29;20226;-25
2023/03/23 05:08:39;;;;;;;0.43;0.43;;;18.10;60.20;;;17.98;44.17;94412.59;4882820;29;20214;-25
2023/03/23 05:11:38;;;;;;;0.50;0.50;;;18.10;60.10;;;17.97;44.26;94406.50;4867748;29;20197;-25
2023/03/23 05:14:22;;;;;;;0.50;0.50;;;18.10;60.20;;;17.97;44.38;94409.16;4881588;29;20237;-25
2023/03/23 05:17:16;;;;;;;0.50;0.50;;;18.10;60.20;;;17.97;43.83;94414.47;4869797;29;20225;-25
2023/03/23 05:19:56;;;;;;;0.50;0.50;;;18.10;60.20;;;17.97;44.42;94427.72;4881376;29;20660;-25
2023/03/23 05:22:47;;;;;;;0.60;0.60;;;18.10;60.30;;;17.98;44.23;94428.50;4868791;29;20292;-25
2023/03/23 05:25:54;;;;;;;0.50;0.50;;;18.10;60.20;;;17.98;44.44;94436.47;4867737;29;20237;-25
2023/03/23 05:28:36;;;;;;;0.50;0.50;;;18.10;60.20;;;17.98;43.76;94441.78;4896604;29;20668;-25
2023/03/23 05:31:08;;;;;;;0.40;0.40;;;18.10;60.20;;;17.98;44.31;94442.59;4867996;29;20193;-25
2023/03/23 05:34:09;;;;;;;0.50;0.50;;;18.10;60.20;;;17.99;44.46;94446.03;4851215;29;20201;-25
2023/03/23 05:36:50;;;;;;;0.50;0.50;;;18.10;60.20;;;17.97;43.88;94451.59;4881651;29;20189;-25
2023/03/23 05:39:55;;;;;;;0.50;0.50;;;18.10;61.20;;;17.99;44.20;94454.00;4868427;29;20236;-25
2023/03/23 05:42:41;;;;;;;0.55;0.55;;;18.10;60.20;;;17.97;44.23;94450.78;4868002;29;20213;-25
2023/03/23 05:45:17;;;;;;;0.50;0.50;;;18.00;60.20;;;17.99;43.96;94459.31;4852815;29;20208;-25
2023/03/23 05:48:00;;;;;;;0.40;0.40;;;18.00;60.10;;;17.98;44.15;94468.31;4850941;29;20257;-25
2023/03/23 05:50:44;;;;;;;0.50;0.50;;;18.10;60.20;;;17.98;44.37;94468.31;4867844;29;20205;-25
2023/03/23 05:53:12;;;;;;;0.60;0.60;;;18.10;60.20;;;17.99;44.16;94467.28;4865494;29;20641;-25
2023/03/23 05:55:39;;;;;;;0.40;0.40;;;18.10;60.20;;;18.01;44.20;94479.25;4849710;29;20214;-25
2023/03/23 05:58:19;;;;;;;0.43;0.43;;;18.10;60.20;;;18.00;44.05;94477.63;4880577;29;20237;-25
2023/03/23 06:00:49;;;;;;;0.40;0.40;;;18.10;60.30;;;18.01;44.00;94471.28;4850061;29;20218;-25
2023/03/23 06:03:24;;;;;;;0.40;0.40;;;18.10;60.20;;;18.02;44.33;94464.94;4864920;29;20213;-25
2023/03/23 06:06:12;;;;;;;0.50;0.50;;;18.10;60.20;;;18.02;43.74;94472.09;4868780;29;20213;-25
2023/03/23 06:08:50;;;;;;;0.45;0.45;;;18.10;60.20;;;18.01;43.86;94471.28;4866679;29;20197;-25
2023/03/23 06:11:24;;;;;;;0.47;0.47;;;18.10;60.30;;;18.02;43.88;94478.19;4850163;29;20202;-25
2023/03/23 06:14:09;;;;;;;0.50;0.50;;;18.10;60.20;;;18.02;43.77;94467.56;4867761;29;20333;-25
2023/03/23 06:16:35;;;;;;;0.40;0.40;;;18.10;60.20;;;18.03;44.25;94466.53;4864915;29;20666;-25
2023/03/23 06:19:08;;;;;;;0.50;0.50;;;18.10;60.20;;;18.05;44.33;94476.88;4836006;29;20293;-25
2023/03/23 06:21:37;;;;;;;0.60;0.60;;;18.10;60.30;;;18.06;44.12;94481.16;4873980;29;20249;-25
2023/03/23 06:24:18;;;;;;;0.50;0.50;;;18.10;60.20;;;18.06;44.27;94483.81;4872243;29;20213;-25
2023/03/23 06:26:44;;;;;;;0.40;0.40;;;18.10;60.10;;;18.06;44.23;94483.81;4853288;29;20193;-25
2023/03/23 06:29:16;;;;;;;0.50;0.50;;;18.10;60.20;;;18.06;44.05;94479.28;4884453;29;20200;-25
2023/03/23 06:31:55;;;;;;;0.40;0.40;;;18.10;60.10;;;18.07;44.29;94480.09;4868873;29;20204;-25
2023/03/23 06:34:27;;;;;;;0.60;0.60;;;18.10;61.10;;;18.07;43.97;94480.09;4869093;29;20520;-25
2023/03/23 06:37:00;;;;;;;0.50;0.50;;;18.20;60.30;;;18.07;44.00;94491.50;4900219;29;20193;-25
2023/03/23 06:39:38;;;;;;;0.50;0.50;;;18.10;60.10;;;18.08;44.14;94493.13;4871842;29;20189;-25
2023/03/23 06:42:16;;;;;;;0.43;0.43;;;18.10;60.20;;;18.10;44.26;94500.81;4883507;29;20193;-25
2023/03/23 06:44:49;;;;;;;0.50;0.50;;;18.10;60.20;;;18.11;44.17;94497.13;4869677;29;20205;-25
2023/03/23 06:47:16;;;;;;;0.50;0.50;;;18.10;60.20;;;18.13;43.96;94494.25;4868484;29;20586;-25
2023/03/23 06:49:47;;;;;;;0.50;0.50;;;18.10;60.20;;;18.14;44.20;94493.16;4853883;29;20212;-25
2023/03/23 06:52:20;;;;;;;0.45;0.45;;;18.20;60.30;;;18.16;43.89;94497.19;4868802;29;20583;-25
2023/03/23 06:54:53;;;;;;;0.50;0.50;;;18.20;60.30;;;18.17;43.77;94488.16;4883674;29;20197;-25
2023/03/23 06:57:21;;;;;;;0.50;0.50;;;18.20;60.30;;;18.18;43.95;94491.63;4853945;29;20201;-25
2023/03/23 06:59:50;;;;;;;0.50;0.50;;;18.20;60.40;;;18.21;44.04;94493.78;4895745;29;20237;-25
2023/03/23 07:02:17;;;;;;;0.50;0.50;;;18.20;60.30;;;18.22;43.97;94498.84;4864993;29;20209;-25
2023/03/23 07:04:46;;;;;;;0.47;0.47;;;18.20;60.70;;;18.24;44.28;94495.94;4865084;29;20235;-25
2023/03/23 07:07:20;;;;;;;0.50;0.50;;;18.20;60.40;;;18.27;44.27;94499.94;4866445;29;20304;-25
2023/03/23 07:09:59;;;;;;;0.50;0.50;;;18.30;60.50;;;18.27;44.31;94494.63;4866505;29;20197;-25
2023/03/23 07:12:30;;;;;;;0.60;0.60;;;18.30;60.50;;;18.30;43.85;94496.81;4864407;29;20561;-25
2023/03/23 07:15:10;;;;;;;0.50;0.50;;;18.30;60.50;;;18.32;44.31;94490.19;4895766;29;20197;-25
2023/03/23 07:17:39;;;;;;;0.50;0.50;;;18.30;60.40;;;18.32;44.02;94478.75;4880462;29;20626;-25
2023/03/23 07:20:39;;;;;;;0.50;0.50;;;18.30;60.40;;;18.36;43.92;94487.84;4876732;29;20300;-25
2023/03/23 07:23:06;;;;;;;0.63;0.63;;;18.40;60.50;;;18.34;44.38;94485.41;4865097;29;20262;-25
2023/03/23 07:25:41;;;;;;;0.50;0.50;;;18.40;60.50;;;18.39;43.95;94490.78;4852119;29;20204;-25
2023/03/23 07:28:11;;;;;;;0.50;0.50;;;18.40;60.50;;;18.40;44.35;94492.38;4881046;29;20209;-25
2023/03/23 07:30:39;;;;;;;0.50;0.50;;;18.40;60.50;;;18.43;43.97;94490.28;4864555;29;20542;-25
2023/03/23 07:33:07;;;;;;;0.50;0.50;;;18.40;60.50;;;18.44;43.91;94489.22;4880041;29;20202;-25
2023/03/23 07:35:35;;;;;;;0.40;0.40;;;18.50;60.50;;;18.47;43.99;94483.41;4864699;29;20193;-25
2023/03/23 07:38:08;;;;;;;0.47;0.47;;;18.50;60.50;;;18.48;44.60;94488.47;4866545;29;20285;-25
2023/03/23 07:40:37;;;;;;;0.40;0.40;;;18.50;60.50;;;18.50;44.28;94491.66;4868050;29;20200;-25
2023/03/23 07:43:12;;;;;;;0.40;0.40;;;18.50;60.50;;;18.52;44.45;94492.22;4869477;29;20217;-25
2023/03/23 07:46:19;;;;;;;0.40;0.40;;;18.50;60.60;;;18.53;44.37;94491.16;4883809;29;20213;-25
2023/03/23 07:49:05;;;;;;;0.40;0.40;;;18.50;60.60;;;18.55;44.57;94489.06;4887627;29;20193;-25
2023/03/23 07:51:38;;;;;;;0.50;0.50;;;18.60;60.60;;;18.57;44.30;94494.13;4869378;29;20243;-25
2023/03/23 07:54:10;;;;;;;0.47;0.47;;;18.60;60.60;;;18.58;44.55;94498.38;4868355;29;20540;-25
2023/03/23 07:56:52;;;;;;;0.40;0.40;;;18.60;60.60;;;18.59;44.62;94493.88;4870201;29;20630;-25
2023/03/23 07:59:23;;;;;;;0.57;0.57;;;18.60;60.60;;;18.61;44.36;94487.25;4902074;29;20689;-25
2023/03/23 08:01:50;;;;;;;0.50;0.50;;;18.60;60.60;;;18.63;44.25;94481.69;4886264;29;20205;-25
2023/03/23 08:04:27;;;;;;;0.47;0.47;;;18.60;60.50;;;18.63;43.94;94479.84;4859055;29;20232;-25
2023/03/23 08:07:12;;;;;;;0.57;0.57;;;18.70;60.60;;;18.64;43.91;94488.59;4873456;29;20287;-25
2023/03/23 08:09:58;;;;;;;0.50;0.50;;;18.70;60.60;;;18.65;44.51;94490.19;4889625;29;20192;-25
2023/03/23 08:12:43;;;;;;;0.50;0.50;;;18.70;60.50;;;18.64;44.00;94491.25;4889023;29;20196;-25
2023/03/23 08:15:39;;;;;;;0.50;0.50;;;18.70;60.60;;;18.65;44.54;94498.16;4882938;29;20206;-25
2023/03/23 08:18:21;;;;;;;0.40;0.40;;;18.70;60.50;;;18.66;44.36;94494.47;4859721;29;20292;-25
2023/03/23 08:21:10;;;;;;;0.50;0.50;;;18.70;60.50;;;18.66;44.53;94489.16;4859926;29;20201;-25
2023/03/23 08:23:56;;;;;;;0.40;0.40;;;18.70;60.50;;;18.69;44.12;94497.41;4889086;29;20240;-25
2023/03/23 08:26:41;;;;;;;0.40;0.40;;;18.70;60.60;;;18.70;44.36;94498.19;4902830;29;20191;-25
2023/03/23 08:29:27;;;;;;;0.47;0.47;;;18.80;60.70;;;18.70;44.08;94498.19;4889080;29;20200;-25
2023/03/23 08:32:26;;;;;;;0.40;0.40;;;18.80;60.70;;;18.68;44.23;94495.81;4871022;29;20559;-25
2023/03/23 08:35:13;;;;;;;0.47;0.47;;;18.80;60.70;;;18.70;44.02;94503.50;4889026;29;20199;-25
2023/03/23 08:37:57;;;;;;;0.50;0.50;;;18.80;60.70;;;18.72;44.61;94502.22;4872352;29;20193;-25
2023/03/23 08:40:43;;;;;;;0.40;0.40;;;18.80;60.70;;;18.75;44.32;94505.41;4859885;29;20221;-25
2023/03/23 08:43:17;;;;;;;0.40;0.40;;;18.80;60.70;;;18.76;44.51;94507.84;4886468;29;20205;-25
2023/03/23 08:46:06;;;;;;;0.40;0.40;;;18.80;60.80;;;18.77;44.27;94505.97;4863121;29;20651;-25
2023/03/23 08:49:10;;;;;;;0.50;0.50;;;18.90;60.80;;;18.76;44.19;94507.84;4890141;29;20205;-25
2023/03/23 08:52:08;;;;;;;0.40;0.40;;;18.90;60.90;;;18.80;44.41;94497.50;4862165;29;20193;-25
2023/03/23 08:54:56;;;;;;;0.50;0.50;;;18.90;60.70;;;18.82;44.81;94490.88;4895519;29;20212;-25
2023/03/23 08:57:33;;;;;;;0.47;0.47;;;18.90;60.80;;;18.83;44.24;94487.16;4885321;29;20248;-26
2023/03/23 09:00:20;;;;;;;0.43;0.43;;;18.90;60.80;;;18.87;44.76;94487.44;4887870;29;20209;-25
2023/03/23 09:03:06;;;;;;;0.50;0.50;;;18.90;60.80;;;18.88;44.26;94484.56;4902214;29;20245;-25
2023/03/23 09:05:54;;;;;;;0.40;0.40;;;19.00;60.90;;;18.90;44.72;94475.53;4871362;29;20196;-25
2023/03/23 09:08:32;;;;;;;0.40;0.40;;;19.00;60.90;;;18.92;44.21;94476.09;4902051;29;20571;-25
2023/03/23 09:18:00;;;;;;;0.40;0.40;;;19.00;60.70;;;18.97;44.33;94468.16;4883514;29;20656;-30
2023/03/23 09:20:28;;;;;;;0.40;0.40;;;19.10;60.70;;;18.98;44.49;94467.09;4854436;29;20232;-31
2023/03/23 09:22:56;;;;;;;0.40;0.40;;;19.10;60.80;;;19.02;44.73;94473.53;4900492;29;20205;-31
2023/03/23 09:25:27;;;;;;;0.45;0.45;;;19.10;60.90;;;19.04;44.30;94464.22;4869479;29;20248;-31
2023/03/23 09:27:57;;;;;;;0.40;0.40;;;19.10;60.80;;;19.09;44.79;94460.81;4869688;29;20185;-31
2023/03/23 09:30:30;;;;;;;0.45;0.45;;;19.20;60.90;;;19.12;44.14;94467.47;4869571;29;20205;-31
2023/03/23 09:33:01;;;;;;;0.50;0.50;;;19.20;60.80;;;19.16;44.77;94456.06;4885063;29;20520;-31
2023/03/23 09:35:29;;;;;;;0.40;0.40;;;19.20;60.80;;;19.19;44.20;94460.84;4869858;29;20189;-31
2023/03/23 09:37:56;;;;;;;0.40;0.40;;;19.20;60.70;;;19.22;44.33;94456.88;4885119;29;20541;-31
2023/03/23 09:40:24;;;;;;;0.50;0.50;;;19.30;60.90;;;19.24;44.66;94461.94;4884768;29;20660;-31
2023/03/23 09:43:15;;;;;;;0.38;0.38;;;19.30;60.90;;;19.28;44.56;94457.72;4884748;29;20189;-31
2023/03/23 09:46:12;;;;;;;0.50;0.50;;;19.30;60.70;;;19.29;44.54;94467.31;4868943;29;20261;-31
2023/03/23 09:48:46;;;;;;;0.40;0.40;;;19.30;60.70;;;19.30;44.04;94463.59;4884980;29;20206;-31
2023/03/23 09:51:40;;;;;;;0.60;0.60;;;19.40;60.70;;;19.33;44.37;94465.72;4884707;29;20186;-31
2023/03/23 09:54:21;;;;;;;0.40;0.40;;;19.40;60.60;;;19.33;44.55;94466.53;4884495;29;20188;-30
2023/03/23 09:56:49;;;;;;;0.43;0.43;;;19.40;60.50;;;19.35;44.07;94475.03;4884398;29;20185;-31
2023/03/23 09:59:39;;;;;;;0.30;0.30;;;19.40;60.50;;;19.39;44.16;94453.25;4884472;29;20260;-31
2023/03/23 10:02:27;;;;;;;0.40;0.40;;;19.50;60.50;;;19.38;44.36;94452.44;4883861;29;20249;-31
2023/03/23 10:05:14;;;;;;;0.50;0.50;;;19.50;60.50;;;19.40;43.96;94441.56;4869078;29;20222;-31
2023/03/23 10:07:41;;;;;;;0.40;0.40;;;19.50;60.50;;;19.44;44.10;94442.63;4901014;29;20266;-31
2023/03/23 10:10:18;;;;;;;0.40;0.40;;;19.50;60.50;;;19.45;44.46;94447.69;4900644;29;20199;-31
2023/03/23 10:13:54;;;;;;;0.40;0.40;;;19.50;60.50;;;19.47;44.00;94442.09;4884041;29;20210;-31
2023/03/23 10:16:58;;;;;;;0.40;0.40;;;19.50;60.50;;;19.48;44.08;94436.53;4878068;29;20253;-31
2023/03/23 10:20:04;;;;;;;0.40;0.40;;;19.60;60.50;;;19.51;44.14;94443.22;4866127;29;20186;-31
2023/03/23 10:23:09;;;;;;;0.40;0.40;;;19.60;60.50;;;19.52;44.06;94437.63;4867003;29;20638;-31
2023/03/23 10:25:48;;;;;;;0.50;0.50;;;19.60;60.40;;;19.56;44.02;94437.91;4849962;29;20290;-31
2023/03/23 10:28:39;;;;;;;0.45;0.45;;;19.70;60.50;;;19.59;43.82;94436.56;4850206;29;20209;-31
2023/03/23 10:31:16;;;;;;;0.40;0.40;;;19.70;60.40;;;19.62;43.76;94442.19;4866298;29;20242;-31
2023/03/23 10:34:03;;;;;;;0.40;0.40;;;19.70;61.30;;;19.65;43.68;94433.69;4866768;29;20233;-31
2023/03/23 10:36:57;;;;;;;0.40;0.40;;;19.70;60.40;;;19.68;43.73;94441.13;4850779;29;20181;-31
2023/03/23 10:39:49;;;;;;;0.40;0.40;;;19.70;60.30;;;19.71;44.00;94439.81;4880650;29;20216;-31
2023/03/23 10:42:31;;;;;;;0.40;0.40;;;19.80;60.40;;;19.76;44.15;94423.06;4849975;29;20536;-31
2023/03/23 10:45:32;;;;;;;0.40;0.40;;;19.80;60.30;;;19.77;43.64;94422.00;4866437;29;20230;-31
2023/03/23 10:48:17;;;;;;;0.40;0.40;;;19.80;60.30;;;19.80;44.06;94424.94;4865860;29;20250;-31
2023/03/23 10:50:50;;;;;;;0.40;0.40;;;19.90;60.30;;;19.82;44.22;94427.34;4866172;29;20211;-31
2023/03/23 10:53:25;;;;;;;0.40;0.40;;;19.90;60.30;;;19.86;43.90;94419.66;4865020;29;20177;-31
2023/03/23 10:55:54;;;;;;;0.40;0.40;;;19.90;60.20;;;19.89;43.47;94414.63;4849825;29;20204;-31
2023/03/23 10:58:31;;;;;;;0.50;0.50;;;20.00;60.30;;;19.91;43.76;94415.16;4881860;29;20639;-31
2023/03/23 11:01:02;;;;;;;0.50;0.50;;;20.00;60.20;;;19.94;43.71;94414.63;4850295;29;20178;-31
2023/03/23 11:03:48;;;;;;;0.40;0.40;;;20.00;60.20;;;19.96;43.28;94412.50;4849390;29;20310;-31
2023/03/23 11:06:39;;;;;;;0.40;0.40;;;20.00;60.20;;;19.99;43.83;94412.00;4865156;29;20193;-31
2023/03/23 11:09:21;;;;;;;0.45;0.45;;;20.10;60.20;;;20.03;43.83;94411.44;4850342;29;20188;-30
2023/03/23 11:11:55;;;;;;;0.43;0.43;;;20.10;60.10;;;20.05;43.35;94418.09;4850463;29;20177;-27
2023/03/23 11:19:31;;;;;;;0.40;0.40;;;20.20;60.10;;;20.05;43.71;94428.75;4929762;23;20403;-30
2023/03/23 11:22:05;;;;;;;0.40;0.40;;;20.20;60.10;;;20.11;43.75;94413.59;4893239;29;20191;-30
2023/03/23 11:24:40;;;;;;;0.40;0.40;;;20.20;60.10;;;20.14;43.46;94416.53;4906069;29;20213;-25
2023/03/23 11:27:11;;;;;;;0.40;0.40;;;20.20;60.10;;;20.19;43.41;94415.75;4906323;29;20180;-32
2023/03/23 11:30:00;;;;;;;0.40;0.40;;;20.30;60.10;;;20.22;43.72;94422.41;4893636;29;20176;-26
2023/03/23 11:32:31;;;;;;;0.35;0.35;;;20.30;60.10;;;20.26;43.55;94413.63;4890824;29;20263;-25
2023/03/23 11:35:04;;;;;;;0.40;0.40;;;20.40;60.10;;;20.30;43.59;94420.00;4906103;29;20215;-25
2023/03/23 11:37:43;;;;;;;0.40;0.40;;;20.40;60.10;;;;;;4875260;29;20187;-25
2023/03/23 11:40:22;;;;;;;0.50;0.50;;;20.40;60.00;;;20.40;43.03;94389.13;4921921;29;20531;-31
2023/03/23 11:43:08;;;;;;;0.43;0.43;;;20.50;60.00;;;20.44;43.35;94408.84;4890508;29;20210;-31
2023/03/23 11:45:55;;;;;;;0.40;0.40;;;20.50;60.00;;;20.47;43.41;94422.44;4891009;29;20239;-27
2023/03/23 11:48:54;;;;;;;0.40;0.40;;;20.50;59.90;;;20.51;43.35;94419.22;4905294;29;20196;-30
2023/03/23 11:51:51;;;;;;;0.50;0.50;;;20.60;59.80;;;20.55;43.09;94423.75;4868900;29;20220;-31
2023/03/23 11:54:47;;;;;;;0.30;0.30;;;20.60;59.80;;;20.58;43.11;94414.41;4905874;29;20283;-27
2023/03/23 11:57:13;;;;;;;0.40;0.40;;;20.60;59.60;;;20.60;43.16;94406.97;4922430;29;20190;-27
2023/03/23 11:59:41;;;;;;;0.40;0.40;;;20.70;59.70;;;20.62;42.51;94407.50;4922680;29;20536;-29
2023/03/23 12:02:27;;;;;;;0.50;0.50;;;20.70;59.40;;;20.66;42.95;94413.91;4904978;29;20626;-31
2023/03/23 12:05:35;;;;;;;0.40;0.40;;;20.70;60.00;;;20.65;42.77;94404.28;4889935;29;20532;-27
2023/03/23 12:08:22;;;;;;;0.40;0.40;;;20.70;59.30;;;20.67;42.42;94412.81;4905881;29;20619;-31
2023/03/23 12:11:09;;;;;;;0.47;0.47;;;20.70;59.40;;;20.68;42.89;94403.78;4905401;29;20203;-31
2023/03/23 12:14:10;;;;;;;0.40;0.40;;;20.80;59.30;;;20.69;42.48;94404.56;4873961;29;20539;-27
2023/03/23 12:17:07;;;;;;;0.40;0.40;;;20.70;59.20;;;20.69;42.70;94409.88;4921964;29;20191;-27
2023/03/23 12:20:27;;;;;;;0.40;0.40;;;20.80;59.30;;;20.70;42.47;94411.50;4904830;29;20226;-27
2023/03/23 12:23:01;;;;;;;0.40;0.40;;;20.80;59.30;;;20.71;42.76;94402.44;4889280;29;20554;-30
2023/03/23 12:25:30;;;;;;;0.40;0.40;;;20.80;59.10;;;20.73;42.71;94403.00;4888957;29;20752;-31
2023/03/23 12:28:17;;;;;;;0.40;0.40;;;20.80;59.00;;;20.75;42.56;94387.53;4889615;29;20206;-30
2023/03/23 12:31:06;;;;;;;0.40;0.40;;;20.80;59.00;;;20.73;42.30;94393.13;4921375;29;20183;-29
2023/03/23 12:34:12;;;;;;;0.40;0.40;;;20.80;59.00;;;20.77;42.25;94396.06;4904819;29;20284;-27
2023/03/23 12:37:27;;;;;;;0.40;0.40;;;20.80;59.00;;;20.77;42.34;94393.41;4889023;29;20209;-29
2023/03/23 12:40:22;;;;;;;0.40;0.40;;;20.80;59.00;;;20.78;42.01;94397.66;4921104;29;20645;-27
2023/03/23 12:43:19;;;;;;;0.40;0.40;;;20.80;58.90;;;20.79;42.22;94385.94;4889155;29;20264;-27
2023/03/23 12:46:27;;;;;;;0.60;0.60;;;20.80;58.80;;;20.83;42.25;94391.53;4889545;29;20184;-27
2023/03/23 12:49:23;;;;;;;0.40;0.40;;;20.90;58.90;;;20.83;41.97;94384.31;4921082;29;20204;-25
2023/03/23 12:56:30;;;;;;;0.45;0.45;;;20.90;58.80;;;20.84;42.11;94390.47;4927452;23;20873;-25
2023/03/23 12:59:14;;;;;;;0.40;0.40;;;20.90;58.70;;;20.87;42.13;94382.72;4889522;29;20195;-30
2023/03/23 13:01:46;;;;;;;0.40;0.40;;;20.90;58.80;;;20.89;42.17;94398.44;4904246;29;20206;-29
2023/03/23 13:04:28;;;;;;;0.40;0.40;;;21.00;58.80;;;20.89;41.86;94380.56;4888439;29;20214;-29
2023/03/23 13:06:59;;;;;;;0.40;0.40;;;21.00;58.80;;;20.92;41.84;94396.03;4920201;29;20223;-30
2023/03/23 13:10:03;;;;;;;0.40;0.40;;;21.00;58.80;;;20.95;41.65;94378.72;4888539;29;20651;-29
2023/03/23 13:12:39;;;;;;;0.40;0.40;;;21.00;58.80;;;20.98;42.18;94388.03;4888294;29;20534;-27
2023/03/23 13:15:45;;;;;;;0.40;0.40;;;21.00;58.80;;;21.01;41.94;94377.63;4905462;29;20279;-27
2023/03/23 13:19:25;;;;;;;0.40;0.40;;;21.00;58.80;;;21.06;42.06;94382.16;4920911;29;20186;-27
2023/03/23 13:22:11;;;;;;;0.40;0.40;;;21.10;58.90;;;21.07;41.92;94383.75;4833073;29;20215;-27
2023/03/23 13:24:51;;;;;;;0.40;0.40;;;21.10;58.70;;;21.09;41.87;94382.41;4832211;29;20222;-27
2023/03/23 13:27:24;;;;;;;0.40;0.40;;;21.10;58.70;;;21.12;42.16;94383.72;4906545;29;20236;-27
2023/03/23 13:29:50;;;;;;;0.40;0.40;;;21.10;58.60;;;21.14;41.75;94378.94;4903806;29;20256;-27
2023/03/23 13:32:20;;;;;;;0.40;0.40;;;21.20;58.70;;;21.15;41.88;94374.38;4903688;29;20288;-31
2023/03/23 13:34:49;;;;;;;0.40;0.40;;;21.20;58.70;;;21.16;41.72;94371.44;4904498;29;20187;-30
2023/03/23 13:37:26;;;;;;;0.40;0.40;;;21.20;58.60;;;21.17;41.74;94375.72;4903044;29;20197;-30
2023/03/23 13:40:11;;;;;;;0.40;0.40;;;21.20;58.50;;;21.20;41.54;94369.84;4888166;29;20550;-27
2023/03/23 13:47:22;;;;;;;0.40;0.40;;;21.20;58.50;;;21.15;41.78;94374.38;4927258;23;20552;-26
2023/03/23 13:49:58;;;;;;;0.43;0.43;;;21.20;58.20;;;21.12;41.52;94367.72;4887958;29;20614;-27
2023/03/23 13:52:58;;;;;;;0.30;0.30;;;21.20;58.20;;;21.12;41.82;94370.41;4887678;29;20193;-27
2023/03/23 13:55:29;;;;;;;0.40;0.40;;;21.20;58.20;;;21.11;41.42;94363.47;4872754;29;20239;-31
2023/03/23 13:58:03;;;;;;;0.40;0.40;;;21.20;58.20;;;21.13;41.19;94361.34;4888087;29;20204;-26
2023/03/23 14:00:31;;;;;;;0.40;0.40;;;21.20;58.10;;;21.13;41.56;94360.50;4920086;29;20188;-30
2023/03/23 14:03:32;;;;;;;0.40;0.40;;;21.20;58.10;;;21.11;41.77;94366.91;4887565;29;20260;-29
2023/03/23 14:05:58;;;;;;;0.50;0.50;;;21.20;58.10;;;21.12;41.34;94370.41;4887884;29;20184;-29
2023/03/23 14:08:40;;;;;;;0.40;0.40;;;21.20;58.10;;;21.10;41.46;94368.00;4887456;29;20234;-30
2023/03/23 14:11:17;;;;;;;0.40;0.40;;;21.20;58.10;;;21.10;41.45;94369.88;4887737;29;20192;-29
2023/03/23 14:14:35;;;;;;;0.50;0.50;;;21.20;58.20;;;21.10;41.20;94361.88;4919557;29;20203;-31
2023/03/23 14:17:49;;;;;;;0.47;0.47;;;21.20;58.10;;;21.08;41.56;94364.81;4875994;29;20324;-31
2023/03/23 14:20:34;;;;;;;0.40;0.40;;;21.20;58.00;;;21.06;41.29;94371.50;4903047;29;20216;-31
2023/03/23 14:23:04;;;;;;;0.50;0.50;;;21.20;58.00;;;21.05;41.52;94370.66;4887429;29;20217;-31
2023/03/23 14:25:31;;;;;;;0.40;0.40;;;21.20;58.00;;;21.05;41.29;94368.00;4902548;29;20367;-31
2023/03/23 14:27:59;;;;;;;0.38;0.38;;;21.20;58.00;;;21.05;41.45;94376.00;4903516;29;20198;-27
2023/03/23 14:30:45;;;;;;;0.30;0.30;;;21.20;58.50;;;20.99;41.46;94362.97;4902918;29;20283;-30
2023/03/23 14:33:13;;;;;;;0.30;0.30;;;21.10;58.00;;;21.02;41.30;94365.91;4861008;29;20226;-25
2023/03/23 14:35:43;;;;;;;0.38;0.38;;;21.10;58.00;;;21.03;41.27;94370.16;4846579;29;20203;-25
2023/03/23 14:38:20;;;;;;;0.40;0.40;;;21.10;58.00;;;21.02;40.97;94365.91;4847420;29;20208;-27
2023/03/23 14:40:47;;;;;;;0.40;0.40;;;21.10;57.80;;;21.03;41.05;94362.16;4862407;29;20191;-26
2023/03/23 14:43:20;;;;;;;0.40;0.40;;;21.10;57.90;;;21.02;41.44;94365.09;4846749;29;20241;-27
2023/03/23 14:45:56;;;;;;;0.40;0.40;;;21.10;57.90;;;21.01;41.19;94363.50;4846660;29;20673;-31
2023/03/23 14:48:22;;;;;;;0.40;0.40;;;21.10;57.90;;;21.02;41.54;94368.56;4862033;29;20179;-25
2023/03/23 14:51:04;;;;;;;0.35;0.35;;;21.10;57.90;;;21.01;41.53;94368.84;4862852;29;20295;-25
2023/03/23 14:53:52;;;;;;;0.50;0.50;;;21.10;57.90;;;20.99;41.49;94358.44;4861745;29;20266;-26
2023/03/23 14:56:27;;;;;;;0.40;0.40;;;21.10;57.90;;;20.99;41.03;94365.63;4862096;29;20268;-25
2023/03/23 14:59:03;;;;;;;0.40;0.40;;;21.10;57.90;;;20.99;41.37;94362.97;4846491;29;20208;-26
2023/03/23 15:01:39;;;;;;;0.45;0.45;;;21.10;57.90;;;20.98;41.26;94364.81;4862961;29;20192;-25
2023/03/23 15:04:17;;;;;;;0.32;0.32;;;21.10;57.90;;;20.97;41.19;94375.75;4831874;29;20214;-25
2023/03/23 15:06:56;;;;;;;0.40;0.40;;;21.10;57.80;;;20.95;41.01;94378.72;4861990;29;20236;-25
2023/03/23 15:09:25;;;;;;;0.40;0.40;;;21.10;57.90;;;20.95;41.22;94382.16;4861902;29;20178;-26
2023/03/23 15:11:57;;;;;;;0.40;0.40;;;21.10;57.90;;;20.95;40.94;94381.38;4846237;29;20194;-25
2023/03/23 15:14:54;;;;;;;0.40;0.40;;;21.10;57.80;;;20.94;41.16;94377.09;4846115;29;20591;-25
2023/03/23 15:17:27;;;;;;;0.40;0.40;;;21.00;57.70;;;20.92;41.08;94373.91;4861872;29;20231;-31
2023/03/23 15:20:29;;;;;;;0.40;0.40;;;21.00;57.70;;;20.90;41.20;94389.38;4846661;29;20558;-31
2023/03/23 15:23:50;;;;;;;0.40;0.40;;;21.00;57.70;;;20.89;41.35;94388.56;4844424;29;20210;-31
2023/03/23 15:26:49;;;;;;;0.40;0.40;;;21.00;57.70;;;20.86;41.39;94389.13;4833887;29;20218;-31
2023/03/23 15:30:23;;;;;;;0.50;0.50;;;21.00;57.70;;;20.84;41.48;94391.25;4846540;29;20681;-31
2023/03/23 15:37:49;;;;;;;0.47;0.47;;;21.00;57.80;;;20.73;41.31;94369.16;4886491;23;20272;-26
2023/03/23 15:40:24;;;;;;;0.40;0.40;;;20.90;57.60;;;20.73;41.49;94371.03;4870881;29;20206;-26
2023/03/23 15:43:19;;;;;;;0.40;0.40;;;20.90;57.70;;;20.73;41.24;94368.34;4886498;29;20649;-25
2023/03/23 15:46:06;;;;;;;0.40;0.40;;;20.90;57.80;;;20.71;41.55;94376.56;4871122;29;20262;-31
2023/03/23 15:48:51;;;;;;;0.47;0.47;;;20.90;57.80;;;20.70;41.62;94382.19;4887148;29;20200;-27
2023/03/23 15:51:28;;;;;;;0.30;0.30;;;20.80;57.70;;;20.70;41.30;94387.50;4902717;29;20618;-25
2023/03/23 15:54:29;;;;;;;0.40;0.40;;;20.80;57.80;;;20.68;41.17;94379.78;4902072;29;20192;-31
2023/03/23 15:57:05;;;;;;;0.40;0.40;;;20.80;57.90;;;20.69;41.65;94383.25;4887233;29;20605;-31
2023/03/23 15:59:42;;;;;;;0.40;0.40;;;20.80;57.80;;;20.69;41.42;94377.91;4886915;29;20192;-31